createdAt,value
2022-09-12T00:01:14.283Z,12.75
2022-09-12T00:04:17.940Z,11.00
2022-09-12T00:07:20.130Z,10.25
2022-09-12T00:10:22.297Z,9.50
2022-09-12T00:13:24.628Z,12.00
2022-09-12T00:16:28.631Z,10.75
2022-09-12T00:19:30.979Z,14.50
2022-09-12T00:22:33.156Z,8.75
2022-09-12T00:25:35.433Z,14.25
2022-09-12T00:28:38.757Z,11.00
2022-09-12T00:31:41.578Z,11.25
2022-09-12T00:34:43.749Z,12.00
2022-09-12T00:37:46.264Z,11.00
2022-09-12T00:40:48.909Z,13.25
2022-09-12T00:43:56.930Z,10.00
2022-09-12T00:47:13.772Z,11.25
2022-09-12T00:50:16.712Z,15.75
2022-09-12T00:53:18.852Z,11.50
2022-09-12T00:56:22.207Z,12.75
2022-09-12T00:59:31.807Z,10.50
2022-09-12T01:02:34.560Z,10.75
2022-09-12T01:05:40.074Z,10.25
2022-09-12T01:08:43.615Z,9.50
2022-09-12T01:11:47.056Z,14.50
2022-09-12T01:14:49.391Z,11.75
2022-09-12T01:18:13.098Z,12.50
2022-09-12T01:21:34.815Z,13.75
2022-09-12T01:24:55.319Z,12.25
2022-09-12T01:28:16.377Z,12.00
2022-09-12T01:31:38.516Z,9.25
2022-09-12T01:34:46.196Z,11.00
2022-09-12T01:38:12.574Z,12.50
2022-09-12T01:41:26.633Z,11.75
2022-09-12T01:44:54.937Z,10.75
2022-09-12T01:48:07.496Z,15.25
2022-09-12T01:51:24.074Z,15.00
2022-09-12T01:54:32.545Z,11.00
2022-09-12T01:57:42.202Z,10.75
2022-09-12T02:01:00.824Z,11.00
2022-09-12T02:04:19.057Z,10.50
2022-09-12T02:07:27.514Z,17.25
2022-09-12T02:10:33.718Z,10.75
2022-09-12T02:13:43.570Z,15.00
2022-09-12T02:16:50.039Z,10.50
2022-09-12T02:19:56.804Z,11.50
2022-09-12T02:23:00.764Z,11.00
2022-09-12T02:26:16.268Z,16.00
2022-09-12T02:29:18.460Z,11.75
2022-09-12T02:32:21.188Z,12.00
2022-09-12T02:35:31.524Z,11.75
2022-09-12T02:38:40.674Z,11.00
2022-09-12T02:41:42.768Z,15.00
2022-09-12T02:44:44.993Z,12.00
2022-09-12T02:48:03.282Z,11.25
2022-09-12T02:51:05.911Z,13.00
2022-09-12T02:54:09.324Z,13.75
2022-09-12T02:57:22.571Z,17.25
2022-09-12T03:00:25.370Z,10.75
2022-09-12T03:03:46.873Z,12.75
2022-09-12T03:07:10.994Z,12.75
2022-09-12T03:10:50.627Z,15.00
2022-09-12T03:14:05.010Z,17.50
2022-09-12T03:17:25.341Z,15.25
2022-09-12T03:21:01.909Z,15.50
2022-09-12T03:24:26.331Z,16.50
2022-09-12T03:27:37.475Z,13.00
2022-09-12T03:30:41.946Z,13.75
2022-09-12T03:33:44.109Z,10.25
2022-09-12T03:36:46.631Z,16.50
2022-09-12T03:39:48.629Z,15.75
2022-09-12T03:42:51.001Z,16.50
2022-09-12T03:45:53.709Z,14.25
2022-09-12T03:48:56.102Z,14.50
2022-09-12T03:51:58.427Z,10.75
2022-09-12T03:55:00.735Z,12.75
2022-09-12T03:58:02.806Z,11.50
2022-09-12T04:01:12.952Z,14.00
2022-09-12T04:04:15.527Z,11.75
2022-09-12T04:07:17.871Z,15.25
2022-09-12T04:10:20.093Z,14.25
2022-09-12T04:13:22.352Z,16.25
2022-09-12T04:16:24.436Z,12.75
2022-09-12T04:19:27.245Z,16.25
2022-09-12T04:22:30.204Z,12.00
2022-09-12T04:25:32.468Z,16.50
2022-09-12T04:28:36.258Z,16.25
2022-09-12T04:31:38.758Z,17.00
2022-09-12T04:34:40.980Z,16.00
2022-09-12T04:37:43.196Z,13.25
2022-09-12T04:40:45.184Z,15.50
2022-09-12T04:43:48.497Z,16.75
2022-09-12T04:46:51.014Z,13.00
2022-09-12T04:49:53.226Z,15.00
2022-09-12T04:52:55.697Z,16.75
2022-09-12T04:56:02.499Z,15.75
2022-09-12T04:59:04.738Z,14.50
2022-09-12T05:02:07.290Z,16.50
2022-09-12T05:05:10.155Z,14.50
2022-09-12T05:08:12.394Z,13.00
2022-09-12T05:11:20.462Z,13.50
2022-09-12T05:14:25.204Z,12.75
2022-09-12T05:17:29.505Z,17.50
2022-09-12T05:20:33.466Z,13.50
2022-09-12T05:23:35.990Z,15.50
2022-09-12T05:26:38.680Z,14.75
2022-09-12T05:29:40.719Z,14.75
2022-09-12T05:32:42.952Z,14.25
2022-09-12T05:35:51.364Z,15.50
2022-09-12T05:38:54.139Z,12.75
2022-09-12T05:41:56.404Z,13.00
2022-09-12T05:44:58.754Z,11.75
2022-09-12T05:48:00.790Z,16.25
2022-09-12T05:51:11.132Z,13.00
2022-09-12T05:54:17.363Z,11.00
2022-09-12T05:57:19.640Z,11.25
2022-09-12T06:00:21.692Z,16.25
2022-09-12T06:03:23.997Z,12.50
2022-09-12T06:06:27.737Z,15.50
2022-09-12T06:09:30.133Z,13.00
2022-09-12T06:12:32.209Z,11.25
2022-09-12T06:15:34.484Z,12.25
2022-09-12T06:18:37.788Z,16.75
2022-09-12T06:21:40.231Z,13.50
2022-09-12T06:24:42.307Z,13.50
2022-09-12T06:27:44.500Z,11.25
2022-09-12T06:30:46.607Z,13.50
2022-09-12T06:33:50.830Z,15.00
2022-09-12T06:36:53.385Z,13.00
2022-09-12T06:39:56.498Z,13.25
2022-09-12T06:42:58.815Z,17.75
2022-09-12T06:46:13.292Z,12.50
2022-09-12T06:49:15.899Z,12.75
2022-09-12T06:52:18.186Z,14.25
2022-09-12T06:55:23.510Z,13.00
2022-09-12T06:58:29.907Z,13.00
2022-09-12T07:01:32.848Z,11.50
2022-09-12T07:04:36.707Z,16.25
2022-09-12T07:07:38.796Z,16.75
2022-09-12T07:10:41.020Z,13.25
2022-09-12T07:13:45.514Z,13.25
2022-09-12T07:16:47.897Z,13.25
2022-09-12T07:19:49.961Z,14.25
2022-09-12T07:22:52.449Z,19.00
2022-09-12T07:25:57.098Z,18.50
2022-09-12T07:32:23.020Z,12.00
2022-09-12T07:35:25.746Z,12.25
2022-09-12T07:38:27.802Z,14.75
2022-09-12T07:41:33.825Z,12.25
2022-09-12T07:44:35.941Z,14.00
2022-09-12T07:47:38.187Z,17.50
2022-09-12T07:50:44.998Z,13.00
2022-09-12T07:53:49.158Z,12.50
2022-09-12T07:56:51.756Z,11.50
2022-09-12T07:59:53.993Z,15.25
2022-09-12T08:02:56.719Z,14.25
2022-09-12T08:06:05.583Z,8.00
2022-09-12T08:09:07.954Z,12.75
2022-09-12T08:12:10.327Z,9.75
2022-09-12T08:15:12.469Z,9.75
2022-09-12T08:18:14.666Z,9.00
2022-09-12T08:21:24.806Z,14.50
2022-09-12T08:24:27.885Z,9.75
2022-09-12T08:27:30.018Z,10.25
2022-09-12T08:30:32.377Z,13.00
2022-09-12T08:33:35.125Z,10.25
2022-09-12T08:36:37.512Z,10.50
2022-09-12T08:39:39.964Z,14.25
2022-09-12T08:43:07.400Z,14.00
2022-09-12T08:46:16.017Z,10.50
2022-09-12T08:50:03.738Z,12.75
2022-09-12T08:53:21.664Z,11.00
2022-09-12T08:56:31.568Z,13.50
2022-09-12T08:59:42.966Z,9.25
2022-09-12T09:03:10.339Z,9.75
2022-09-12T09:06:27.215Z,13.75
2022-09-12T09:09:54.799Z,9.50
2022-09-12T09:12:56.873Z,9.75
2022-09-12T09:16:24.965Z,8.25
2022-09-12T09:19:32.956Z,10.75
2022-09-12T09:22:38.238Z,11.00
2022-09-12T09:26:03.211Z,12.50
2022-09-12T09:29:18.501Z,11.50
2022-09-12T09:32:29.783Z,10.25
2022-09-12T09:35:44.999Z,14.25
2022-09-12T09:38:50.815Z,14.00
2022-09-12T09:42:18.090Z,11.50
2022-09-12T09:45:24.121Z,12.00
2022-09-12T09:48:36.055Z,11.00
2022-09-12T09:51:40.880Z,9.75
2022-09-12T09:54:54.287Z,10.25
2022-09-12T09:57:56.401Z,11.00
2022-09-12T10:01:06.830Z,13.00
2022-09-12T10:04:27.047Z,13.25
2022-09-12T10:07:29.458Z,10.00
2022-09-12T10:10:31.512Z,9.00
2022-09-12T10:13:42.936Z,9.25
2022-09-12T10:16:55.200Z,9.50
2022-09-12T10:20:17.565Z,12.00
2022-09-12T10:23:37.295Z,14.00
2022-09-12T10:26:40.920Z,9.00
2022-09-12T10:29:51.917Z,11.00
2022-09-12T10:32:58.981Z,8.00
2022-09-12T10:36:01.307Z,9.00
2022-09-12T10:39:04.680Z,11.00
2022-09-12T10:42:07.339Z,9.00
2022-09-12T10:45:36.312Z,12.25
2022-09-12T10:48:38.409Z,11.00
2022-09-12T10:51:40.715Z,9.50
2022-09-12T10:54:43.473Z,10.25
2022-09-12T10:58:07.434Z,11.00
2022-09-12T11:01:37.322Z,12.25
2022-09-12T11:04:56.138Z,11.25
2022-09-12T11:08:26.913Z,11.00
2022-09-12T11:11:44.102Z,10.75
2022-09-12T11:15:17.199Z,11.75
2022-09-12T11:18:50.270Z,10.25
2022-09-12T11:22:19.779Z,10.00
2022-09-12T11:25:48.495Z,9.00
2022-09-12T11:29:28.078Z,6.00
2022-09-12T11:32:52.727Z,9.75
2022-09-12T11:35:57.484Z,12.00
2022-09-12T11:39:10.001Z,9.25
2022-09-12T11:42:33.477Z,10.00
2022-09-12T11:45:41.588Z,10.50
2022-09-12T11:48:59.111Z,9.50
2022-09-12T11:52:24.898Z,9.50
2022-09-12T11:55:29.834Z,9.50
2022-09-12T11:58:32.195Z,8.50
2022-09-12T12:01:43.838Z,9.25
2022-09-12T12:05:20.817Z,5.25
2022-09-12T12:08:24.620Z,9.00
2022-09-12T12:11:40.004Z,7.25
2022-09-12T12:14:45.474Z,7.50
2022-09-12T12:18:16.463Z,7.00
2022-09-12T12:21:31.740Z,9.75
2022-09-12T12:24:34.307Z,7.75
2022-09-12T12:27:59.151Z,10.25
2022-09-12T12:31:02.181Z,7.25
2022-09-12T12:34:19.986Z,10.75
2022-09-12T12:37:22.185Z,9.00
2022-09-12T12:40:27.416Z,9.25
2022-09-12T12:43:32.608Z,7.25
2022-09-12T12:46:38.197Z,9.00
2022-09-12T12:49:40.562Z,10.50
2022-09-12T12:53:02.977Z,7.25
2022-09-12T12:56:05.512Z,9.25
2022-09-12T12:59:26.392Z,9.75
2022-09-12T13:02:41.168Z,10.50
2022-09-12T13:05:49.329Z,9.50
2022-09-12T13:09:33.747Z,10.75
2022-09-12T13:12:43.547Z,8.25
2022-09-12T13:15:51.242Z,10.00
2022-09-12T13:18:53.469Z,10.25
2022-09-12T13:21:57.048Z,10.75
2022-09-12T13:24:59.684Z,11.00
2022-09-12T13:28:11.385Z,11.00
2022-09-12T13:31:25.203Z,11.75
2022-09-12T13:34:56.256Z,5.00
2022-09-12T13:38:17.084Z,9.50
2022-09-12T13:41:44.137Z,10.25
2022-09-12T13:44:51.463Z,9.50
2022-09-12T13:48:05.114Z,7.50
2022-09-12T13:51:08.073Z,10.00
2022-09-12T13:54:20.308Z,8.25
2022-09-12T13:57:37.633Z,8.25
2022-09-12T14:00:40.025Z,9.25
2022-09-12T14:04:26.885Z,11.00
2022-09-12T14:07:29.156Z,9.25
2022-09-12T14:10:39.864Z,8.00
2022-09-12T14:13:42.857Z,9.50
2022-09-12T14:16:45.083Z,9.50
2022-09-12T14:19:48.317Z,8.00
2022-09-12T14:22:51.890Z,6.50
2022-09-12T14:25:56.452Z,6.50
2022-09-12T14:28:59.156Z,5.00
2022-09-12T14:32:03.687Z,6.00
2022-09-12T14:35:11.913Z,6.50
2022-09-12T14:38:17.225Z,8.00
2022-09-12T14:41:26.407Z,7.00
2022-09-12T14:44:30.056Z,5.50
2022-09-12T14:47:39.257Z,7.00
2022-09-12T14:50:41.760Z,7.25
2022-09-12T14:53:49.014Z,8.75
2022-09-12T14:56:59.470Z,6.50
2022-09-12T15:00:13.931Z,7.00
2022-09-12T15:03:28.718Z,7.00
2022-09-12T15:06:33.662Z,6.50
2022-09-12T15:09:36.178Z,7.75
2022-09-12T15:12:38.314Z,6.50
2022-09-12T15:15:59.994Z,9.25
2022-09-12T15:19:02.239Z,6.75
2022-09-12T15:22:04.671Z,9.75
2022-09-12T15:25:07.376Z,7.75
2022-09-12T15:28:19.630Z,5.00
2022-09-12T15:31:25.685Z,6.00
2022-09-12T15:34:28.040Z,5.25
2022-09-12T15:37:31.323Z,7.00
2022-09-12T15:40:33.612Z,11.50
2022-09-12T15:43:35.722Z,7.75
2022-09-12T15:46:38.215Z,5.75
2022-09-12T15:49:40.803Z,6.75
2022-09-12T15:52:43.282Z,4.25
2022-09-12T15:55:45.797Z,7.00
2022-09-12T15:58:59.244Z,9.25
2022-09-12T16:02:02.690Z,6.50
2022-09-12T16:05:05.673Z,8.25
2022-09-12T16:08:07.791Z,11.75
2022-09-12T16:11:25.065Z,8.25
2022-09-12T16:14:27.106Z,11.50
2022-09-12T16:17:29.547Z,9.50
2022-09-12T16:20:31.606Z,11.25
2022-09-12T16:23:35.612Z,8.00
2022-09-12T16:26:37.805Z,12.00
2022-09-12T16:29:41.436Z,12.00
2022-09-12T16:32:43.419Z,11.50
2022-09-12T16:35:45.756Z,12.75
2022-09-12T16:38:53.735Z,12.00
2022-09-12T16:41:56.163Z,11.75
2022-09-12T16:44:58.423Z,9.25
2022-09-12T16:48:00.787Z,13.00
2022-09-12T16:51:06.982Z,10.00
2022-09-12T16:54:09.972Z,14.50
2022-09-12T16:57:12.271Z,14.00
2022-09-12T17:00:15.227Z,14.50
2022-09-12T17:03:17.599Z,13.00
2022-09-12T17:06:20.375Z,12.00
2022-09-12T17:09:22.601Z,15.00
2022-09-12T17:12:25.219Z,13.75
2022-09-12T17:15:28.560Z,13.00
2022-09-12T17:18:31.144Z,16.25
2022-09-12T17:21:34.111Z,15.25
2022-09-12T17:24:36.630Z,14.25
2022-09-12T17:27:38.848Z,13.50
2022-09-12T17:30:41.907Z,18.25
2022-09-12T17:33:44.573Z,12.25
2022-09-12T17:36:48.448Z,16.25
2022-09-12T17:39:50.859Z,14.00
2022-09-12T17:42:54.003Z,15.50
2022-09-12T17:45:59.302Z,16.75
2022-09-12T17:49:03.892Z,11.00
2022-09-12T17:52:06.362Z,14.25
2022-09-12T17:55:09.199Z,16.00
2022-09-12T17:58:11.418Z,13.75
2022-09-12T18:01:33.522Z,15.25
2022-09-12T18:04:35.804Z,16.75
2022-09-12T18:07:43.937Z,17.50
2022-09-12T18:10:46.538Z,18.25
2022-09-12T18:13:49.126Z,16.50
2022-09-12T18:16:52.418Z,21.00
2022-09-12T18:19:55.451Z,15.25
2022-09-12T18:22:57.891Z,17.25
2022-09-12T18:26:02.152Z,16.75
2022-09-12T18:29:04.893Z,17.25
2022-09-12T18:32:09.642Z,17.50
2022-09-12T18:35:12.092Z,15.50
2022-09-12T18:38:14.452Z,20.00
2022-09-12T18:41:20.799Z,19.00
2022-09-12T18:44:23.589Z,15.75
2022-09-12T18:47:25.649Z,14.25
2022-09-12T18:50:28.079Z,17.25
2022-09-12T18:53:34.631Z,19.00
2022-09-12T18:56:38.455Z,15.50
2022-09-12T18:59:40.849Z,15.50
2022-09-12T19:02:43.516Z,17.25
2022-09-12T19:05:45.738Z,14.00
2022-09-12T19:08:50.153Z,14.00
2022-09-12T19:11:52.752Z,18.00
2022-09-12T19:14:55.998Z,17.75
2022-09-12T19:17:58.114Z,16.00
2022-09-12T19:21:04.151Z,16.50
2022-09-12T19:24:10.093Z,15.75
2022-09-12T19:27:20.221Z,17.00
2022-09-12T19:31:21.339Z,17.75
2022-09-12T19:34:29.545Z,17.00
2022-09-12T19:37:33.807Z,15.00
2022-09-12T19:40:44.348Z,15.25
2022-09-12T19:43:46.810Z,16.25
2022-09-12T19:46:49.319Z,15.75
2022-09-12T19:49:52.626Z,17.50
2022-09-12T19:52:55.051Z,9.75
2022-09-12T19:56:01.585Z,14.50
2022-09-12T19:59:03.967Z,21.00
2022-09-12T20:02:06.034Z,16.50
2022-09-12T20:05:08.520Z,18.75
2022-09-12T20:08:10.989Z,18.25
2022-09-12T20:11:19.034Z,15.25
2022-09-12T20:14:22.260Z,19.25
2022-09-12T20:17:24.581Z,14.75
2022-09-12T20:20:26.764Z,16.75
2022-09-12T20:23:29.132Z,18.00
2022-09-12T20:26:31.551Z,19.50
2022-09-12T20:29:33.865Z,16.00
2022-09-12T20:32:35.962Z,21.00
2022-09-12T20:35:38.280Z,19.25
2022-09-12T20:38:41.142Z,18.50
2022-09-12T20:41:43.761Z,14.25
2022-09-12T20:44:45.958Z,19.50
2022-09-12T20:47:48.216Z,19.75
2022-09-12T20:50:50.450Z,19.75
2022-09-12T20:53:56.324Z,23.00
2022-09-12T20:56:58.420Z,19.00
2022-09-12T21:00:00.891Z,20.75
2022-09-12T21:03:04.000Z,21.00
2022-09-12T21:06:07.580Z,22.75
2022-09-12T21:09:10.144Z,18.25
2022-09-12T21:12:12.383Z,21.00
2022-09-12T21:15:14.513Z,19.75
2022-09-12T21:18:16.771Z,21.25
2022-09-12T21:21:18.776Z,16.25
2022-09-12T21:24:21.058Z,26.75
2022-09-12T21:27:23.173Z,22.00
2022-09-12T21:30:25.457Z,17.50
2022-09-12T21:33:28.163Z,17.00
2022-09-12T21:36:30.488Z,23.50
2022-09-12T21:39:32.536Z,21.00
2022-09-12T21:42:34.735Z,22.00
2022-09-12T21:45:36.737Z,20.00
2022-09-12T21:48:39.110Z,21.75
2022-09-12T21:51:41.380Z,20.00
2022-09-12T21:54:43.665Z,26.50
2022-09-12T21:57:45.715Z,21.50
2022-09-12T22:00:48.136Z,21.50
2022-09-12T22:03:50.185Z,18.25
2022-09-12T22:06:52.551Z,16.00
2022-09-12T22:09:54.794Z,22.75
2022-09-12T22:12:57.019Z,18.50
2022-09-12T22:16:00.419Z,19.75
2022-09-12T22:19:02.776Z,12.25
2022-09-12T22:22:23.471Z,20.25
2022-09-12T22:25:25.958Z,21.75
2022-09-12T22:28:29.736Z,24.00
2022-09-12T22:31:32.027Z,20.50
2022-09-12T22:34:34.401Z,23.25
2022-09-12T22:37:36.692Z,17.75
2022-09-12T22:40:39.095Z,22.00
2022-09-12T22:43:41.485Z,24.25
2022-09-12T22:46:44.253Z,17.75
2022-09-12T22:49:47.733Z,19.75
2022-09-12T22:52:49.846Z,20.75
2022-09-12T22:55:52.031Z,23.25
2022-09-12T22:58:54.276Z,25.25
2022-09-12T23:01:57.254Z,21.75
2022-09-12T23:04:59.255Z,19.00
2022-09-12T23:08:01.645Z,20.00
2022-09-12T23:11:11.658Z,25.75
2022-09-12T23:14:14.026Z,20.75
2022-09-12T23:17:16.127Z,23.00
2022-09-12T23:20:18.493Z,24.25
2022-09-12T23:23:20.665Z,20.50
2022-09-12T23:26:24.993Z,24.00
2022-09-12T23:29:27.603Z,22.00
2022-09-12T23:32:30.397Z,28.50
2022-09-12T23:35:32.661Z,24.75
2022-09-12T23:38:35.829Z,26.00
2022-09-12T23:41:38.252Z,22.00
2022-09-12T23:44:40.809Z,25.50
2022-09-12T23:47:42.834Z,28.00
2022-09-12T23:50:46.512Z,26.25
2022-09-12T23:53:48.801Z,25.75
2022-09-12T23:56:51.722Z,32.75
2022-09-12T23:59:53.866Z,22.25
